Terminal Aerodrome Forecast
Issued by NWS

Home | Current Version | Previous Version | Text Only | Print | Product List | Glossary On
Versions: 1 2 3 4 5 6 7 8 9 10 11 12 13 14 15 16
000
FTAK31 PAFA 211132
TAFAOM
TAF
PAOM 211132Z 2112/2212 VRB05KT P6SM SCT035 SCT050 BKN100
     FM211500 VRB05KT P6SM FEW050 SCT100
     FM212100 01012KT P6SM SCT100=

USA.gov is the U.S. government's official web portal to all federal, state and local government web resources and services.